Time;durP1;ratioP1;P1;durP2;ratioP2;P2;SDS_P1;SDS_P2;PMS_P1;PMS_P2;Temp;Humidity;BMP_temperature;BMP_pressure;BME280_temperature;BME280_humidity;BME280_pressure;Samples;Min_cycle;Max_cycle;Signal;HPM_P1;HPM_P2
2023/03/19 00:01:12;;;;;;;13.20;6.10;;;10.90;99.90;;;;;;5072431;28;20392;-57
2023/03/19 00:03:38;;;;;;;14.13;5.70;;;10.90;99.90;;;;;;5072622;28;20706;-58
2023/03/19 00:06:03;;;;;;;12.48;5.30;;;10.90;99.90;;;;;;5071541;28;21223;-57
2023/03/19 00:08:29;;;;;;;13.20;5.32;;;10.90;99.90;;;;;;5072837;28;20376;-57
2023/03/19 00:10:54;;;;;;;10.77;5.20;;;11.00;99.90;;;;;;5071297;28;20379;-57
2023/03/19 00:13:20;;;;;;;13.05;4.90;;;10.90;99.90;;;;;;5071935;28;20732;-57
2023/03/19 00:15:46;;;;;;;11.20;4.90;;;10.90;99.90;;;;;;5071671;28;20384;-59
2023/03/19 00:18:13;;;;;;;12.10;5.50;;;11.00;99.90;;;;;;5072280;28;20831;-56
2023/03/19 00:20:39;;;;;;;11.88;5.65;;;11.00;99.90;;;;;;5071874;28;20486;-57
2023/03/19 00:23:05;;;;;;;10.13;4.90;;;11.00;99.90;;;;;;5071213;28;20471;-57
2023/03/19 00:25:32;;;;;;;10.55;5.10;;;11.20;99.90;;;;;;5072039;28;20382;-57
2023/03/19 00:27:58;;;;;;;11.35;5.53;;;11.10;99.90;;;;;;5070171;28;20842;-57
2023/03/19 00:30:23;;;;;;;11.10;5.30;;;11.20;99.90;;;;;;5071901;28;20487;-57
2023/03/19 00:32:49;;;;;;;10.85;4.60;;;11.20;99.90;;;;;;5070892;28;20845;-57
2023/03/19 00:35:15;;;;;;;11.10;5.00;;;11.10;99.90;;;;;;5071403;28;20430;-57
2023/03/19 00:37:40;;;;;;;10.45;5.10;;;11.10;99.90;;;;;;5071948;28;20461;-57
2023/03/19 00:40:07;;;;;;;13.37;5.50;;;11.10;99.90;;;;;;5071092;28;20380;-57
2023/03/19 00:42:33;;;;;;;10.57;4.82;;;11.10;99.90;;;;;;5071386;28;20384;-57
2023/03/19 00:44:59;;;;;;;10.50;5.10;;;11.30;99.90;;;;;;5070486;28;20449;-57
2023/03/19 00:47:26;;;;;;;11.55;4.70;;;11.40;99.90;;;;;;5071118;28;20728;-57
2023/03/19 00:49:52;;;;;;;12.68;4.40;;;11.30;99.90;;;;;;5070827;28;20376;-57
2023/03/19 00:52:17;;;;;;;9.83;4.90;;;11.20;99.90;;;;;;5071580;28;20729;-57
2023/03/19 00:54:43;;;;;;;11.43;5.45;;;11.20;99.90;;;;;;5071115;28;20395;-60
2023/03/19 00:57:09;;;;;;;10.73;4.70;;;11.20;99.90;;;;;;5071112;28;20489;-57
2023/03/19 00:59:35;;;;;;;11.95;5.47;;;11.20;99.90;;;;;;5071944;28;20384;-57
2023/03/19 01:02:00;;;;;;;9.83;5.10;;;11.30;99.90;;;;;;5070339;28;20457;-57
2023/03/19 01:04:26;;;;;;;10.50;4.85;;;11.40;99.90;;;;;;5071234;28;20386;-57
2023/03/19 01:06:52;;;;;;;11.30;4.93;;;11.40;99.90;;;;;;5070154;28;20419;-57
2023/03/19 01:09:17;;;;;;;10.15;5.03;;;11.40;99.90;;;;;;5071323;28;20411;-57
2023/03/19 01:11:43;;;;;;;16.10;5.50;;;11.50;99.90;;;;;;5071214;28;20368;-57
2023/03/19 01:14:09;;;;;;;9.57;4.70;;;11.40;99.90;;;;;;5070623;28;20396;-57
2023/03/19 01:16:35;;;;;;;10.70;5.45;;;11.40;99.90;;;;;;5071007;28;20741;-57
2023/03/19 01:19:01;;;;;;;11.43;5.00;;;11.40;99.90;;;;;;5069953;28;20380;-57
2023/03/19 01:21:29;;;;;;;11.73;5.00;;;11.50;99.90;;;;;;5071119;28;20410;-57
2023/03/19 01:23:56;;;;;;;10.75;5.38;;;11.60;99.90;;;;;;5069607;28;20384;-61
2023/03/19 01:26:22;;;;;;;9.40;4.70;;;11.50;99.90;;;;;;5069534;28;20390;-57
2023/03/19 01:28:48;;;;;;;11.23;5.00;;;11.60;99.90;;;;;;5069882;28;20412;-60
2023/03/19 01:31:13;;;;;;;10.38;5.07;;;11.60;99.90;;;;;;5070884;28;20424;-57
2023/03/19 01:33:39;;;;;;;11.60;4.60;;;11.60;99.90;;;;;;5070319;28;20760;-57
2023/03/19 01:36:05;;;;;;;12.13;4.73;;;11.40;99.90;;;;;;5051990;28;20410;-57
2023/03/19 01:38:31;;;;;;;10.95;4.90;;;11.20;1.00;;;;;;5070412;28;20395;-57
2023/03/19 01:40:57;;;;;;;13.17;4.90;;;11.20;1.00;;;;;;5069730;28;20384;-57
2023/03/19 01:43:30;;;;;;;10.85;4.75;;;11.20;1.00;;;;;;5070829;28;20379;-57
2023/03/19 01:46:04;;;;;;;12.20;4.90;;;11.20;1.00;;;;;;5070242;28;20391;-57
2023/03/19 01:48:36;;;;;;;10.80;5.00;;;11.30;1.00;;;;;;5070474;28;20456;-57
2023/03/19 01:51:02;;;;;;;11.57;4.60;;;11.30;1.00;;;;;;5069515;28;20896;-57
2023/03/19 01:53:31;;;;;;;13.55;4.97;;;11.10;99.90;;;;;;5070773;28;20376;-57
2023/03/19 01:56:05;;;;;;;11.05;4.70;;;10.70;99.90;;;;;;5069719;28;20879;-57
2023/03/19 01:58:31;;;;;;;8.40;3.93;;;10.40;99.90;;;;;;5070154;28;20391;-57
2023/03/19 02:00:57;;;;;;;9.90;4.20;;;10.50;99.90;;;;;;5069420;28;20480;-57
2023/03/19 02:03:24;;;;;;;9.70;4.28;;;10.60;1.00;;;;;;5070062;28;20774;-57
2023/03/19 02:05:51;;;;;;;9.32;3.78;;;10.70;1.00;;;;;;5069384;28;20398;-59
2023/03/19 02:08:20;;;;;;;7.53;3.00;;;10.70;1.00;;;;;;5069982;28;20390;-57
2023/03/19 02:10:47;;;;;;;9.60;3.30;;;10.60;1.00;;;;;;5069815;28;20441;-60
2023/03/19 02:13:13;;;;;;;8.38;2.80;;;10.70;1.00;;;;;;5069840;28;20424;-58
2023/03/19 02:15:39;;;;;;;9.05;3.10;;;10.70;98.40;;;;;;5070075;28;20410;-57
2023/03/19 02:18:05;;;;;;;8.95;3.25;;;10.80;99.90;;;;;;5069044;28;20391;-57
2023/03/19 02:20:39;;;;;;;7.93;2.60;;;10.80;1.00;;;;;;5070000;28;20835;-57
2023/03/19 02:23:19;;;;;;;6.63;2.70;;;10.90;1.00;;;;;;5069395;28;20802;-57
2023/03/19 02:26:20;;;;;;;8.10;2.70;;;10.90;2.80;;;;;;5069846;28;20427;-58
2023/03/19 02:28:48;;;;;;;8.13;2.28;;;10.90;99.90;;;;;;5024555;28;20470;-59
2023/03/19 02:31:15;;;;;;;6.53;2.10;;;10.90;1.00;;;;;;5069610;28;20434;-57
2023/03/19 02:33:41;;;;;;;7.45;2.63;;;10.90;99.90;;;;;;5069735;28;20372;-57
2023/03/19 02:36:16;;;;;;;6.78;2.55;;;10.90;99.90;;;;;;5068928;28;20400;-58
2023/03/19 02:38:43;;;;;;;8.05;2.80;;;11.00;99.90;;;;;;5069655;28;20372;-58
2023/03/19 02:41:10;;;;;;;7.88;2.78;;;11.00;1.00;;;;;;5069636;28;20462;-57
2023/03/19 02:43:39;;;;;;;9.33;2.70;;;11.10;99.90;;;;;;5069169;28;20380;-56
2023/03/19 02:46:09;;;;;;;7.47;2.70;;;11.10;1.00;;;;;;5069218;28;20383;-56
2023/03/19 02:48:36;;;;;;;6.70;2.60;;;11.10;99.90;;;;;;5069628;28;20449;-58
2023/03/19 02:51:02;;;;;;;7.50;2.72;;;11.00;94.30;;;;;;5068974;28;20405;-58
2023/03/19 02:53:30;;;;;;;6.75;2.90;;;11.00;99.90;;;;;;5069453;28;20901;-57
2023/03/19 02:55:55;;;;;;;7.20;2.90;;;11.10;1.00;;;;;;5050591;28;20866;-57
2023/03/19 02:58:21;;;;;;;10.95;3.60;;;11.10;99.90;;;;;;5069682;28;20394;-57
2023/03/19 03:00:46;;;;;;;9.50;3.00;;;11.00;99.90;;;;;;5069431;28;20414;-60
2023/03/19 03:03:12;;;;;;;7.85;3.40;;;11.00;1.00;;;;;;5069366;28;20388;-59
2023/03/19 03:05:39;;;;;;;10.65;3.50;;;11.00;1.00;;;;;;5069654;28;20854;-57
2023/03/19 03:08:05;;;;;;;7.50;3.03;;;11.00;49.40;;;;;;5068884;28;20391;-57
2023/03/19 03:10:32;;;;;;;9.13;3.30;;;11.10;1.00;;;;;;5069369;28;20793;-56
2023/03/19 03:12:58;;;;;;;9.75;3.65;;;11.10;1.00;;;;;;5068847;28;20372;-57
2023/03/19 03:15:24;;;;;;;10.52;5.80;;;11.20;99.90;;;;;;5068754;28;20439;-57
2023/03/19 03:17:50;;;;;;;10.43;3.70;;;11.30;99.90;;;;;;5068952;28;20422;-59
2023/03/19 03:20:16;;;;;;;8.38;3.40;;;11.40;1.10;;;;;;5073646;28;20384;-57
2023/03/19 03:22:43;;;;;;;7.00;2.80;;;11.30;99.90;;;;;;5072733;28;20465;-56
2023/03/19 03:25:09;;;;;;;8.38;3.25;;;11.20;99.90;;;;;;5072361;28;20391;-56
2023/03/19 03:27:36;;;;;;;7.37;2.70;;;11.20;99.90;;;;;;5072951;28;20390;-56
2023/03/19 03:30:05;;;;;;;7.50;3.20;;;11.10;1.00;;;;;;5072182;28;20484;-57
2023/03/19 03:32:30;;;;;;;6.67;2.90;;;11.10;99.90;;;;;;5072958;28;20407;-56
2023/03/19 03:34:56;;;;;;;6.57;2.65;;;11.00;1.00;;;;;;5072079;28;20407;-56
2023/03/19 03:37:22;;;;;;;11.83;3.27;;;11.10;1.00;;;;;;5072860;28;20383;-57
2023/03/19 03:39:47;;;;;;;7.57;2.80;;;11.10;1.00;;;;;;5072657;28;20455;-60
2023/03/19 03:42:13;;;;;;;7.70;3.30;;;11.10;47.80;;;;;;5072161;28;20426;-56
2023/03/19 03:44:39;;;;;;;8.60;3.03;;;11.10;1.00;;;;;;5072871;28;20380;-57
2023/03/19 03:47:05;;;;;;;8.10;2.70;;;11.10;99.90;;;;;;5054242;28;20392;-56
2023/03/19 03:49:31;;;;;;;9.20;2.83;;;11.20;19.80;;;;;;5072832;28;20376;-57
2023/03/19 03:51:56;;;;;;;10.43;3.27;;;11.20;1.00;;;;;;5071745;28;20379;-56
2023/03/19 03:54:22;;;;;;;8.55;2.70;;;11.00;1.00;;;;;;5073158;28;20406;-57
2023/03/19 03:56:49;;;;;;;8.37;3.20;;;10.90;1.00;;;;;;5072087;28;20380;-61
2023/03/19 03:59:15;;;;;;;7.35;2.80;;;10.90;99.90;;;;;;5072246;28;20415;-57
2023/03/19 04:01:40;;;;;;;7.78;2.30;;;10.90;99.90;;;;;;5073125;28;20388;-56
2023/03/19 04:04:06;;;;;;;6.87;2.60;;;10.90;99.90;;;;;;5071665;28;20438;-56
2023/03/19 04:06:32;;;;;;;6.40;2.40;;;10.70;99.90;;;;;;5072384;28;20425;-56
2023/03/19 04:08:57;;;;;;;8.70;2.60;;;10.80;99.90;;;;;;5072031;28;20376;-56
2023/03/19 04:11:23;;;;;;;9.20;2.60;;;10.80;99.90;;;;;;5072367;28;20383;-56
2023/03/19 04:13:49;;;;;;;7.50;2.80;;;10.80;99.90;;;;;;5071672;28;20411;-61
2023/03/19 04:16:15;;;;;;;7.87;2.30;;;10.80;1.00;;;;;;5072507;28;20391;-57
2023/03/19 04:18:41;;;;;;;6.05;2.50;;;10.80;99.90;;;;;;5071883;28;20387;-57
2023/03/19 04:21:07;;;;;;;6.93;2.40;;;10.70;1.00;;;;;;5071787;28;20400;-57
2023/03/19 04:23:33;;;;;;;6.82;2.40;;;10.70;1.00;;;;;;5072206;28;20387;-56
2023/03/19 04:26:01;;;;;;;7.68;2.50;;;10.70;99.90;;;;;;5071189;28;20371;-56
2023/03/19 04:28:27;;;;;;;9.02;2.78;;;10.60;99.90;;;;;;5071222;28;20407;-57
2023/03/19 04:30:58;;;;;;;8.70;3.00;;;10.60;1.00;;;;;;5070618;28;20884;-59
2023/03/19 04:33:25;;;;;;;11.90;2.80;;;10.70;1.00;;;;;;5072138;28;20379;-56
2023/03/19 04:35:51;;;;;;;9.13;3.50;;;10.70;1.00;;;;;;5070861;28;20412;-59
2023/03/19 04:38:17;;;;;;;8.55;3.50;;;10.80;1.00;;;;;;5071563;28;20382;-58
2023/03/19 04:40:42;;;;;;;8.07;3.20;;;10.90;1.00;;;;;;5071828;28;20380;-57
2023/03/19 04:43:08;;;;;;;9.00;3.40;;;10.90;1.00;;;;;;5071016;28;20549;-57
2023/03/19 04:45:34;;;;;;;7.87;3.60;;;10.90;1.00;;;;;;5071651;28;20383;-57
2023/03/19 04:48:00;;;;;;;8.82;3.85;;;10.80;1.00;;;;;;5070805;28;20395;-56
2023/03/19 04:50:26;;;;;;;9.93;3.85;;;10.80;30.30;;;;;;5071744;28;20415;-57
2023/03/19 04:52:52;;;;;;;7.10;3.53;;;10.80;15.30;;;;;;5071145;28;20372;-61
2023/03/19 04:55:18;;;;;;;9.80;4.10;;;10.70;99.90;;;;;;5069880;28;20414;-57
2023/03/19 04:57:43;;;;;;;8.88;4.00;;;10.70;99.90;;;;;;5071143;28;20408;-57
2023/03/19 05:00:10;;;;;;;8.53;4.47;;;10.60;99.90;;;;;;5070642;28;20392;-57
2023/03/19 05:02:36;;;;;;;7.65;3.45;;;10.60;99.90;;;;;;5071030;28;20448;-57
2023/03/19 05:05:01;;;;;;;10.95;4.28;;;10.70;99.90;;;;;;5070282;28;20384;-59
2023/03/19 05:07:27;;;;;;;8.88;3.95;;;10.80;99.90;;;;;;5071912;28;20387;-57
2023/03/19 05:09:53;;;;;;;9.13;3.80;;;10.90;99.90;;;;;;5069939;28;20403;-57
2023/03/19 05:12:18;;;;;;;8.90;3.80;;;10.90;99.90;;;;;;5070819;28;20387;-57
2023/03/19 05:14:44;;;;;;;7.65;3.40;;;10.90;99.90;;;;;;5070705;28;20403;-57
2023/03/19 05:17:10;;;;;;;10.97;4.17;;;10.90;99.90;;;;;;5052267;28;20411;-57
2023/03/19 05:19:38;;;;;;;11.20;4.28;;;10.80;99.90;;;;;;5070988;28;20383;-57
2023/03/19 05:22:03;;;;;;;8.80;4.22;;;10.80;99.90;;;;;;5070159;28;20838;-57
2023/03/19 05:24:29;;;;;;;10.20;4.23;;;10.80;99.90;;;;;;5070648;28;20386;-56
2023/03/19 05:26:55;;;;;;;10.57;4.78;;;10.80;99.90;;;;;;5069983;28;20421;-57
2023/03/19 05:29:22;;;;;;;11.13;5.30;;;10.90;99.90;;;;;;5070811;28;20418;-56
2023/03/19 05:31:47;;;;;;;11.88;5.18;;;10.90;37.90;;;;;;5071084;28;20382;-58
2023/03/19 05:34:13;;;;;;;11.20;5.40;;;10.80;1.00;;;;;;5070117;28;20396;-57
2023/03/19 05:36:40;;;;;;;11.98;5.38;;;10.90;19.30;;;;;;5052425;28;20583;-57
2023/03/19 05:39:06;;;;;;;11.50;5.47;;;10.80;95.30;;;;;;5069995;28;20470;-58
2023/03/19 05:41:32;;;;;;;9.88;5.10;;;10.80;1.00;;;;;;5069658;28;20943;-57
2023/03/19 05:43:58;;;;;;;11.93;5.30;;;10.90;99.90;;;;;;5069584;28;20389;-57
2023/03/19 05:46:23;;;;;;;10.63;5.72;;;10.90;99.90;;;;;;5070201;28;20391;-57
2023/03/19 05:48:50;;;;;;;12.85;5.50;;;10.90;1.00;;;;;;5070091;28;20392;-61
2023/03/19 05:51:16;;;;;;;12.18;6.00;;;10.90;1.00;;;;;;5070164;28;20478;-58
2023/03/19 05:53:41;;;;;;;11.65;5.60;;;11.00;1.00;;;;;;5070073;28;20490;-58
2023/03/19 05:56:07;;;;;;;12.33;6.00;;;11.00;1.00;;;;;;5069665;28;20390;-57
2023/03/19 05:58:33;;;;;;;12.60;5.80;;;10.90;1.00;;;;;;5070479;28;20765;-57
2023/03/19 06:00:59;;;;;;;11.93;5.90;;;10.80;1.00;;;;;;5068951;28;20473;-57
2023/03/19 06:03:26;;;;;;;11.07;5.60;;;10.80;1.00;;;;;;5070068;28;20383;-57
2023/03/19 06:05:52;;;;;;;12.15;5.50;;;10.80;1.00;;;;;;5069684;28;20483;-57
2023/03/19 06:08:18;;;;;;;13.20;5.43;;;10.70;1.00;;;;;;5070403;28;20416;-59
2023/03/19 06:10:44;;;;;;;10.65;5.40;;;10.70;99.90;;;;;;5052019;28;20405;-57
2023/03/19 06:13:10;;;;;;;11.10;5.43;;;10.70;99.90;;;;;;5037203;28;21316;-57
2023/03/19 06:15:36;;;;;;;11.68;4.70;;;10.80;99.90;;;;;;5030291;28;20411;-57
2023/03/19 06:18:01;;;;;;;11.68;5.00;;;10.80;51.60;;;;;;5029281;28;20418;-56
2023/03/19 06:20:27;;;;;;;13.67;5.50;;;10.70;99.90;;;;;;5030091;28;20379;-57
2023/03/19 06:22:53;;;;;;;9.70;5.00;;;10.80;60.90;;;;;;5029219;28;20382;-57
2023/03/19 06:25:18;;;;;;;10.67;5.27;;;10.80;99.90;;;;;;5030042;28;20779;-59
2023/03/19 06:27:44;;;;;;;9.00;4.70;;;10.90;99.90;;;;;;5029898;28;20804;-57
2023/03/19 06:30:10;;;;;;;9.50;4.45;;;10.90;99.60;;;;;;5029341;28;20406;-58
2023/03/19 06:32:36;;;;;;;10.20;4.43;;;10.80;62.30;;;;;;5029987;28;20520;-57
2023/03/19 06:35:02;;;;;;;12.02;5.00;;;10.90;30.90;;;;;;5029235;28;20461;-58
2023/03/19 06:37:27;;;;;;;10.52;4.50;;;11.00;1.00;;;;;;5029737;28;20736;-57
2023/03/19 06:39:56;;;;;;;8.60;3.40;;;11.10;1.00;;;;;;5028879;28;21006;-58
2023/03/19 06:42:22;;;;;;;7.60;3.00;;;11.20;1.00;;;;;;5029800;28;20371;-57
2023/03/19 06:44:48;;;;;;;6.53;2.90;;;11.10;99.90;;;;;;5029866;28;20398;-57
2023/03/19 06:47:14;;;;;;;10.13;3.60;;;11.30;1.00;;;;;;5033244;28;21021;-58
2023/03/19 06:49:40;;;;;;;6.20;2.83;;;11.40;99.90;;;;;;5033226;28;20449;-57
2023/03/19 06:52:06;;;;;;;8.80;3.20;;;11.50;1.00;;;;;;5029585;28;20493;-64
2023/03/19 06:54:31;;;;;;;6.33;2.80;;;11.50;43.10;;;;;;5037481;28;20808;-58
2023/03/19 06:56:58;;;;;;;6.63;2.67;;;11.50;1.00;;;;;;5053229;28;20942;-58
2023/03/19 06:59:24;;;;;;;6.90;2.80;;;11.50;1.00;;;;;;5053360;28;20393;-59
2023/03/19 07:01:51;;;;;;;10.10;2.90;;;11.60;1.00;;;;;;5053413;28;20392;-58
2023/03/19 07:04:17;;;;;;;8.82;3.22;;;11.80;99.90;;;;;;5048497;28;20900;-58
2023/03/19 07:06:43;;;;;;;7.10;2.50;;;12.00;37.90;;;;;;5051282;28;20413;-59
2023/03/19 07:09:08;;;;;;;6.87;2.70;;;12.20;1.00;;;;;;5047819;28;20399;-58
2023/03/19 07:11:35;;;;;;;8.13;3.25;;;12.20;1.00;;;;;;5045674;28;20430;-58
2023/03/19 07:14:01;;;;;;;8.00;2.90;;;12.50;1.00;;;;;;5042255;28;20469;-59
2023/03/19 07:16:27;;;;;;;9.05;3.35;;;12.60;1.00;;;;;;5054645;28;20433;-58
2023/03/19 07:18:52;;;;;;;9.63;3.50;;;12.70;1.00;;;;;;5048426;28;20431;-63
2023/03/19 07:21:18;;;;;;;8.60;3.30;;;12.80;1.00;;;;;;5054884;28;20845;-59
2023/03/19 07:23:45;;;;;;;9.43;4.28;;;12.80;1.00;;;;;;5053364;28;20461;-59
2023/03/19 07:26:12;;;;;;;7.00;3.20;;;12.80;1.00;;;;;;5060960;28;20800;-58
2023/03/19 07:28:37;;;;;;;8.63;3.60;;;12.70;1.00;;;;;;5059582;28;20413;-59
2023/03/19 07:31:03;;;;;;;9.00;3.70;;;12.40;68.70;;;;;;5051174;28;20936;-59
2023/03/19 07:33:29;;;;;;;8.60;3.38;;;12.50;99.90;;;;;;5052717;28;20442;-58
2023/03/19 07:35:55;;;;;;;8.43;3.30;;;12.50;99.90;;;;;;5054527;28;20407;-58
2023/03/19 07:38:20;;;;;;;8.95;3.65;;;12.70;99.90;;;;;;5055494;28;20431;-58
2023/03/19 07:40:46;;;;;;;10.00;3.60;;;12.70;44.10;;;;;;5045395;28;20436;-58
2023/03/19 07:43:12;;;;;;;8.00;3.50;;;12.90;1.00;;;;;;5052706;28;20767;-58
2023/03/19 07:45:37;;;;;;;8.40;3.63;;;13.10;1.00;;;;;;5055716;28;20390;-58
2023/03/19 07:48:03;;;;;;;8.80;3.90;;;13.10;1.00;;;;;;5054759;28;20384;-58
2023/03/19 07:50:30;;;;;;;10.93;3.72;;;13.10;1.00;;;;;;5052372;28;20476;-58
2023/03/19 07:52:56;;;;;;;8.25;3.67;;;13.10;1.00;;;;;;5054801;28;20738;-58
2023/03/19 07:55:21;;;;;;;8.70;3.88;;;13.20;1.00;;;;;;5054695;28;20949;-58
2023/03/19 07:57:47;;;;;;;9.40;4.00;;;13.50;1.00;;;;;;5055117;28;20500;-59
2023/03/19 08:00:13;;;;;;;10.05;4.35;;;13.60;1.00;;;;;;5049357;28;20874;-59
2023/03/19 08:02:41;;;;;;;9.00;4.50;;;13.80;1.00;;;;;;5055071;28;20419;-59
2023/03/19 08:05:08;;;;;;;9.50;4.60;;;13.80;1.00;;;;;;5052965;28;20397;-58
2023/03/19 08:07:34;;;;;;;8.80;3.55;;;14.10;99.90;;;;;;5053387;28;20490;-58
2023/03/19 08:09:59;;;;;;;8.15;3.30;;;14.20;99.90;;;;;;5053717;28;20580;-58
2023/03/19 08:12:25;;;;;;;8.40;3.53;;;14.20;99.90;;;;;;5050183;28;20409;-58
2023/03/19 08:14:50;;;;;;;9.15;3.50;;;14.30;46.40;;;;;;5045445;28;20421;-58
2023/03/19 08:17:16;;;;;;;9.45;3.80;;;14.40;13.90;;;;;;5049441;28;20385;-58
2023/03/19 08:19:42;;;;;;;8.53;3.40;;;14.50;1.00;;;;;;5037302;28;20897;-59
2023/03/19 08:22:08;;;;;;;7.32;2.85;;;14.50;1.00;;;;;;5062665;28;20390;-58
2023/03/19 08:24:34;;;;;;;7.33;3.10;;;14.50;1.00;;;;;;5039370;28;20407;-58
2023/03/19 08:26:59;;;;;;;10.18;2.92;;;14.50;1.00;;;;;;5044749;28;20903;-58
2023/03/19 08:29:26;;;;;;;8.40;3.47;;;14.60;1.00;;;;;;5044294;28;20980;-58
2023/03/19 08:31:53;;;;;;;8.02;3.05;;;14.60;1.00;;;;;;5044024;28;20884;-59
2023/03/19 08:34:19;;;;;;;8.50;3.00;;;14.50;1.00;;;;;;5044128;28;20426;-59
2023/03/19 08:36:45;;;;;;;7.40;2.80;;;14.50;1.00;;;;;;5040687;28;21003;-58
2023/03/19 08:39:10;;;;;;;8.20;3.30;;;14.60;1.00;;;;;;5049112;28;20491;-59
2023/03/19 08:41:36;;;;;;;8.43;3.20;;;14.80;1.00;;;;;;5062131;28;20747;-58
2023/03/19 08:44:02;;;;;;;7.60;3.20;;;14.80;1.00;;;;;;5039052;28;20486;-58
2023/03/19 08:46:28;;;;;;;7.88;3.33;;;14.90;1.00;;;;;;5047788;28;20393;-58
2023/03/19 08:48:54;;;;;;;9.20;3.40;;;15.20;1.00;;;;;;5035899;28;20468;-62
2023/03/19 08:51:20;;;;;;;8.02;3.25;;;15.50;1.00;;;;;;5036353;28;20973;-59
2023/03/19 08:53:46;;;;;;;8.05;3.10;;;15.70;1.00;;;;;;5036367;28;20502;-59
2023/03/19 08:56:11;;;;;;;8.30;3.40;;;16.10;1.00;;;;;;5042601;28;20418;-59
2023/03/19 08:58:38;;;;;;;7.23;3.13;;;16.50;1.00;;;;;;5049330;28;20400;-58
2023/03/19 09:01:12;;;;;;;8.05;3.20;;;16.80;1.00;;;;;;5056973;28;20396;-59
2023/03/19 09:03:39;;;;;;;8.23;3.30;;;17.00;1.00;;;;;;5058859;28;20874;-59
2023/03/19 09:06:08;;;;;;;9.23;3.30;;;17.10;1.00;;;;;;5065556;28;21091;-59
2023/03/19 09:08:35;;;;;;;7.15;2.95;;;16.80;1.00;;;;;;5070090;28;20792;-58
2023/03/19 09:11:01;;;;;;;7.80;3.50;;;16.60;1.00;;;;;;5069862;28;20392;-58
2023/03/19 09:13:27;;;;;;;8.15;3.63;;;17.00;1.00;;;;;;5066149;28;20389;-59
2023/03/19 09:15:53;;;;;;;10.18;3.63;;;17.40;1.00;;;;;;5051025;28;20404;-58
2023/03/19 09:18:19;;;;;;;8.47;3.37;;;18.60;1.00;;;;;;5040560;28;20855;-58
2023/03/19 09:20:46;;;;;;;9.00;3.30;;;19.30;1.00;;;;;;5031779;28;20411;-58
2023/03/19 09:23:12;;;;;;;9.25;3.72;;;21.40;99.90;;;;;;5029990;28;20460;-59
2023/03/19 09:25:37;;;;;;;10.85;3.80;;;23.20;99.90;;;;;;5031049;28;20849;-59
2023/03/19 09:28:03;;;;;;;8.20;3.50;;;24.60;99.90;;;;;;5030661;28;20399;-60
2023/03/19 09:30:29;;;;;;;8.40;3.80;;;25.30;99.90;;;;;;5031481;28;20418;-59
2023/03/19 09:32:55;;;;;;;8.43;4.70;;;25.40;99.90;;;;;;5030830;28;20454;-63
2023/03/19 09:35:21;;;;;;;8.70;4.57;;;25.60;99.90;;;;;;5047243;28;20556;-59
2023/03/19 09:37:47;;;;;;;7.90;4.70;;;25.20;99.90;;;;;;5050278;28;20388;-59
2023/03/19 09:40:25;;;;;;;9.07;5.70;;;25.40;99.90;;;;;;5049987;28;20402;-59
2023/03/19 09:43:00;;;;;;;8.68;5.50;;;25.00;99.90;;;;;;5050374;28;20374;-59
2023/03/19 09:45:27;;;;;;;8.70;5.40;;;24.20;99.90;;;;;;5050681;28;20468;-59
2023/03/19 09:47:58;;;;;;;8.93;5.40;;;24.40;99.90;;;;;;5050310;28;20377;-60
2023/03/19 09:50:27;;;;;;;9.98;6.20;;;25.30;99.90;;;;;;5050631;28;20373;-59
2023/03/19 09:53:00;;;;;;;8.70;6.43;;;26.20;99.90;;;;;;5050673;28;20515;-60
2023/03/19 09:55:42;;;;;;;8.90;6.03;;;26.20;99.90;;;;;;5050271;28;20401;-59
2023/03/19 09:58:26;;;;;;;8.70;5.87;;;25.90;99.90;;;;;;5049347;28;20735;-59
2023/03/19 10:00:54;;;;;;;8.70;5.50;;;24.30;99.90;;;;;;5030581;28;20379;-59
2023/03/19 10:03:38;;;;;;;8.60;4.90;;;22.70;99.90;;;;;;5053554;28;20405;-59
2023/03/19 10:06:21;;;;;;;10.65;4.60;;;21.80;99.90;;;;;;5054343;28;20385;-59
2023/03/19 10:08:50;;;;;;;7.65;3.70;;;21.30;99.90;;;;;;5050043;28;20822;-58
2023/03/19 10:11:36;;;;;;;8.60;3.60;;;20.60;99.90;;;;;;5055542;28;20864;-59
2023/03/19 10:14:16;;;;;;;7.50;3.17;;;19.90;99.90;;;;;;5049463;28;20870;-58
2023/03/19 10:16:47;;;;;;;7.50;2.70;;;19.20;99.90;;;;;;5049682;28;20889;-59
2023/03/19 10:19:20;;;;;;;7.57;2.67;;;18.90;99.90;;;;;;5049170;28;20381;-59
2023/03/19 10:21:59;;;;;;;6.53;2.65;;;18.80;99.90;;;;;;5050093;28;20385;-58
2023/03/19 10:24:32;;;;;;;5.95;2.30;;;18.90;99.90;;;;;;5049854;28;20827;-58
2023/03/19 10:27:01;;;;;;;6.30;2.70;;;18.90;99.90;;;;;;5048912;28;20385;-59
2023/03/19 10:29:27;;;;;;;6.93;2.55;;;18.50;99.90;;;;;;5049866;28;20902;-60
2023/03/19 10:32:33;;;;;;;7.32;2.63;;;18.40;99.90;;;;;;5050860;28;20369;-58
2023/03/19 10:35:02;;;;;;;6.10;2.50;;;18.60;99.90;;;;;;5049096;28;20414;-63
2023/03/19 10:37:28;;;;;;;6.05;2.40;;;19.30;99.90;;;;;;5049514;28;20424;-58
2023/03/19 10:39:56;;;;;;;6.82;2.80;;;18.80;99.90;;;;;;5049730;28;20440;-58
2023/03/19 10:43:03;;;;;;;5.60;2.30;;;18.50;99.90;;;;;;5049023;28;20374;-58
2023/03/19 10:45:36;;;;;;;7.28;2.63;;;18.60;99.90;;;;;;5050319;28;20474;-58
2023/03/19 10:48:03;;;;;;;8.30;2.60;;;18.80;99.90;;;;;;5049429;28;20377;-59
2023/03/19 10:50:36;;;;;;;6.73;2.10;;;19.60;99.90;;;;;;5050107;28;20392;-60
2023/03/19 10:53:21;;;;;;;6.13;2.40;;;20.60;99.90;;;;;;5048796;28;20386;-58
2023/03/19 10:56:03;;;;;;;6.50;2.80;;;21.40;99.90;;;;;;5049395;28;20463;-59
2023/03/19 10:58:33;;;;;;;8.57;3.08;;;21.50;99.90;;;;;;5049506;28;20392;-59
2023/03/19 11:01:07;;;;;;;7.57;2.88;;;22.00;99.90;;;;;;5049318;28;20397;-63
2023/03/19 11:03:36;;;;;;;7.88;3.50;;;21.70;99.90;;;;;;5049240;28;20389;-59
2023/03/19 11:06:33;;;;;;;8.07;3.30;;;21.30;99.90;;;;;;5048507;28;20414;-59
2023/03/19 11:09:07;;;;;;;6.93;2.80;;;20.80;99.90;;;;;;5031205;28;20389;-58
2023/03/19 11:11:35;;;;;;;7.23;2.53;;;20.00;99.90;;;;;;5029519;28;20421;-59
2023/03/19 11:14:19;;;;;;;6.75;2.78;;;19.80;99.90;;;;;;5038176;28;20389;-59
2023/03/19 11:16:51;;;;;;;7.10;2.40;;;19.40;99.90;;;;;;5048956;28;20746;-59
2023/03/19 11:19:22;;;;;;;7.10;3.03;;;19.40;99.90;;;;;;5048590;28;20386;-58
2023/03/19 11:22:07;;;;;;;9.15;2.90;;;19.30;99.90;;;;;;5049091;28;20385;-58
2023/03/19 11:24:37;;;;;;;6.68;2.70;;;19.20;99.90;;;;;;5049501;28;20400;-58
2023/03/19 11:27:03;;;;;;;6.20;2.60;;;18.90;99.90;;;;;;5048005;28;20468;-58
2023/03/19 11:29:30;;;;;;;8.70;3.30;;;18.60;99.90;;;;;;5049594;28;20401;-58
2023/03/19 11:32:07;;;;;;;6.45;2.92;;;18.30;99.90;;;;;;5049252;28;20430;-58
2023/03/19 11:34:50;;;;;;;8.50;3.08;;;18.40;99.90;;;;;;5049248;28;20751;-59
2023/03/19 11:37:27;;;;;;;7.75;2.83;;;18.60;99.90;;;;;;5048724;28;20465;-58
2023/03/19 11:40:14;;;;;;;6.97;2.88;;;18.70;99.90;;;;;;5051019;28;20385;-60
2023/03/19 11:43:17;;;;;;;6.80;2.70;;;18.70;99.90;;;;;;5053055;28;20396;-59
2023/03/19 11:45:59;;;;;;;9.02;2.80;;;18.60;99.90;;;;;;5052934;28;20453;-58
2023/03/19 11:48:39;;;;;;;7.47;3.08;;;19.00;99.90;;;;;;5052545;28;20862;-58
2023/03/19 11:51:17;;;;;;;8.43;3.55;;;18.90;99.90;;;;;;5051492;28;20790;-59
2023/03/19 11:54:00;;;;;;;6.20;2.60;;;19.40;99.90;;;;;;5052943;28;20374;-58
2023/03/19 11:56:46;;;;;;;7.00;3.05;;;19.40;99.90;;;;;;5052231;28;20523;-59
2023/03/19 11:59:31;;;;;;;6.30;2.70;;;19.60;99.90;;;;;;5051889;28;20882;-58
2023/03/19 12:02:29;;;;;;;8.40;3.38;;;19.90;99.90;;;;;;5052507;28;20382;-58
2023/03/19 12:05:10;;;;;;;6.97;3.22;;;19.40;99.90;;;;;;5052430;28;20484;-59
2023/03/19 12:07:35;;;;;;;7.40;2.80;;;19.40;99.90;;;;;;5052228;28;20498;-59
2023/03/19 12:10:32;;;;;;;6.60;2.83;;;19.40;99.90;;;;;;5051584;28;20443;-62
2023/03/19 12:13:03;;;;;;;6.20;2.53;;;19.70;99.90;;;;;;5051564;28;20464;-59
2023/03/19 12:16:03;;;;;;;7.27;3.03;;;19.40;99.90;;;;;;5052431;28;20455;-58
2023/03/19 12:18:54;;;;;;;8.23;3.08;;;19.30;99.90;;;;;;5021487;28;20409;-58
2023/03/19 12:21:57;;;;;;;7.95;3.25;;;19.50;99.90;;;;;;5051717;28;20751;-58
2023/03/19 12:25:00;;;;;;;7.97;3.30;;;19.70;99.90;;;;;;5052096;28;20378;-59
2023/03/19 12:27:47;;;;;;;8.95;3.03;;;19.70;99.90;;;;;;5051530;28;20389;-59
2023/03/19 12:30:32;;;;;;;6.60;2.80;;;19.00;99.90;;;;;;5051127;28;20448;-58
2023/03/19 12:32:58;;;;;;;7.50;2.65;;;18.70;99.90;;;;;;5051272;28;20744;-63
2023/03/19 12:35:37;;;;;;;6.90;2.90;;;18.50;99.90;;;;;;5051290;28;20455;-58
2023/03/19 12:38:18;;;;;;;7.25;2.70;;;18.60;99.90;;;;;;5050848;28;20396;-59
2023/03/19 12:41:02;;;;;;;5.80;2.08;;;17.30;99.90;;;;;;5051692;28;20373;-58
2023/03/19 12:43:34;;;;;;;6.80;2.30;;;16.70;99.90;;;;;;5051724;28;20378;-58
2023/03/19 12:46:26;;;;;;;6.85;2.08;;;16.70;99.90;;;;;;5050881;28;20381;-62
2023/03/19 12:48:58;;;;;;;6.10;2.00;;;16.40;99.90;;;;;;5051405;28;20388;-58
2023/03/19 12:51:28;;;;;;;6.30;2.30;;;16.20;99.90;;;;;;5050399;28;20378;-58
2023/03/19 12:54:23;;;;;;;6.32;2.20;;;16.40;99.90;;;;;;5051530;28;20373;-58
2023/03/19 12:57:19;;;;;;;6.30;2.13;;;16.60;99.90;;;;;;5050946;28;20373;-58
2023/03/19 13:00:08;;;;;;;6.75;2.40;;;16.60;99.90;;;;;;5044493;28;20741;-58